UAL8301 KCLT-KMKE
Flight info
| Callsign | UAL8301 |
|---|---|
| Flight time | 1h 30m |
| Altitude | 38000 |
| Route | JOJJO5 DOOGE FLM MACES VINNE BRAVE EXARR |
| Aircraft | B77W/H-SDE1E2E3FGHIJ2J3J4J5M1RWXY/LB1D1 |
Departure
| Time | 2026-04-23 19:18 |
|---|---|
| Airport | Charlotte Douglas International Airport (KCLT) |
Arrival
| Time | 2026-04-23 20:48 |
|---|---|
| Airport | General Mitchell International Airport (KMKE) |
| Time | Latitude | Longitude | Altitude | Speed | Heading |
|---|---|---|---|---|---|
| 2026-04-23 18:51 | 35.22115 | -80.93899 | 737 ft | 0 kts | 229° |
| 2026-04-23 19:06 | 35.22121 | -80.93890 | 737 ft | 4 kts | 229° |
| 2026-04-23 19:06 | 35.22137 | -80.93868 | 734 ft | 4 kts | 226° |
| 2026-04-23 19:06 | 35.22155 | -80.93853 | 735 ft | 4 kts | 167° |
| 2026-04-23 19:07 | 35.22171 | -80.93870 | 735 ft | 4 kts | 111° |
| 2026-04-23 19:07 | 35.22179 | -80.93902 | 737 ft | 4 kts | 98° |
| 2026-04-23 19:07 | 35.22179 | -80.93934 | 735 ft | 4 kts | 84° |
| 2026-04-23 19:07 | 35.22178 | -80.93950 | 735 ft | 1 kts | 86° |
| 2026-04-23 19:09 | 35.22179 | -80.93933 | 735 ft | 4 kts | 85° |
| 2026-04-23 19:09 | 35.22182 | -80.93880 | 737 ft | 7 kts | 85° |
| 2026-04-23 19:10 | 35.22187 | -80.93820 | 737 ft | 7 kts | 84° |
| 2026-04-23 19:10 | 35.22178 | -80.93750 | 738 ft | 9 kts | 128° |
| 2026-04-23 19:10 | 35.22119 | -80.93721 | 738 ft | 9 kts | 174° |
| 2026-04-23 19:10 | 35.22052 | -80.93716 | 738 ft | 10 kts | 176° |
| 2026-04-23 19:11 | 35.21981 | -80.93710 | 738 ft | 11 kts | 176° |
| 2026-04-23 19:11 | 35.21904 | -80.93703 | 738 ft | 11 kts | 175° |
| 2026-04-23 19:11 | 35.21826 | -80.93696 | 740 ft | 11 kts | 175° |
| 2026-04-23 19:11 | 35.21747 | -80.93689 | 739 ft | 12 kts | 176° |
| 2026-04-23 19:12 | 35.21688 | -80.93684 | 738 ft | 13 kts | 176° |
| 2026-04-23 19:12 | 35.21564 | -80.93674 | 738 ft | 13 kts | 176° |
| 2026-04-23 19:12 | 35.21471 | -80.93665 | 738 ft | 13 kts | 176° |
| 2026-04-23 19:12 | 35.21378 | -80.93657 | 738 ft | 13 kts | 175° |
| 2026-04-23 19:13 | 35.21283 | -80.93648 | 738 ft | 13 kts | 175° |
| 2026-04-23 19:13 | 35.21191 | -80.93641 | 738 ft | 13 kts | 176° |
| 2026-04-23 19:13 | 35.21080 | -80.93632 | 738 ft | 18 kts | 176° |
| 2026-04-23 19:13 | 35.20953 | -80.93621 | 738 ft | 18 kts | 176° |
| 2026-04-23 19:14 | 35.20826 | -80.93610 | 738 ft | 18 kts | 175° |
| 2026-04-23 19:14 | 35.20700 | -80.93598 | 738 ft | 18 kts | 176° |
| 2026-04-23 19:14 | 35.20573 | -80.93588 | 738 ft | 18 kts | 176° |
| 2026-04-23 19:14 | 35.20446 | -80.93577 | 738 ft | 18 kts | 176° |
| 2026-04-23 19:15 | 35.20321 | -80.93568 | 738 ft | 18 kts | 176° |
| 2026-04-23 19:15 | 35.20195 | -80.93557 | 738 ft | 18 kts | 176° |
| 2026-04-23 19:15 | 35.20121 | -80.93538 | 738 ft | 3 kts | 141° |
| 2026-04-23 19:15 | 35.20119 | -80.93535 | 738 ft | 0 kts | 135° |
| 2026-04-23 19:16 | 35.20118 | -80.93534 | 737 ft | 2 kts | 135° |
| 2026-04-23 19:16 | 35.20102 | -80.93466 | 738 ft | 11 kts | 92° |
| 2026-04-23 19:17 | 35.20275 | -80.93429 | 740 ft | 32 kts | 356° |
| 2026-04-23 19:17 | 35.20773 | -80.93472 | 740 ft | 113 kts | 355° |
| 2026-04-23 19:17 | 35.21803 | -80.93561 | 743 ft | 180 kts | 356° |
| 2026-04-23 19:17 | 35.23150 | -80.93680 | 1144 ft | 203 kts | 355° |
| 2026-04-23 19:18 | 35.24585 | -80.93716 | 1857 ft | 214 kts | 8° |
| 2026-04-23 19:18 | 35.26067 | -80.93175 | 2394 ft | 233 kts | 17° |
| 2026-04-23 19:18 | 35.27692 | -80.92581 | 2900 ft | 254 kts | 14° |
| 2026-04-23 19:18 | 35.29437 | -80.92023 | 3743 ft | 263 kts | 13° |
| 2026-04-23 19:19 | 35.32928 | -80.90766 | 5832 ft | 260 kts | 13° |
| 2026-04-23 19:19 | 35.34746 | -80.90757 | 6503 ft | 269 kts | 339° |
| 2026-04-23 19:20 | 35.36968 | -80.94115 | 8133 ft | 269 kts | 280° |
| 2026-04-23 19:20 | 35.37362 | -80.96373 | 8917 ft | 274 kts | 283° |
| 2026-04-23 19:20 | 35.37842 | -80.98638 | 9899 ft | 274 kts | 284° |
| 2026-04-23 19:20 | 35.38343 | -81.00912 | 10686 ft | 282 kts | 285° |
| 2026-04-23 19:21 | 35.38884 | -81.03341 | 10997 ft | 310 kts | 285° |
| 2026-04-23 19:21 | 35.40130 | -81.08908 | 11655 ft | 362 kts | 285° |
| 2026-04-23 19:21 | 35.40803 | -81.11892 | 12512 ft | 372 kts | 285° |
| 2026-04-23 19:22 | 35.41501 | -81.14990 | 13516 ft | 381 kts | 286° |
| 2026-04-23 19:22 | 35.42208 | -81.18130 | 14552 ft | 385 kts | 286° |
| 2026-04-23 19:22 | 35.43699 | -81.24569 | 16367 ft | 400 kts | 289° |
| 2026-04-23 19:23 | 35.44780 | -81.27729 | 17278 ft | 406 kts | 296° |
| 2026-04-23 19:23 | 35.46147 | -81.30815 | 18047 ft | 417 kts | 302° |
| 2026-04-23 19:23 | 35.47810 | -81.33768 | 18839 ft | 423 kts | 306° |
| 2026-04-23 19:24 | 35.51279 | -81.39643 | 20583 ft | 429 kts | 305° |
| 2026-04-23 19:24 | 35.52994 | -81.42611 | 21371 ft | 434 kts | 305° |
| 2026-04-23 19:24 | 35.57034 | -81.48215 | 22895 ft | 445 kts | 316° |
| 2026-04-23 19:25 | 35.61997 | -81.52875 | 24297 ft | 453 kts | 324° |
| 2026-04-23 19:25 | 35.67177 | -81.57357 | 25639 ft | 458 kts | 324° |
| 2026-04-23 19:26 | 35.72389 | -81.61897 | 26780 ft | 467 kts | 324° |
| 2026-04-23 19:26 | 35.75052 | -81.64225 | 27371 ft | 471 kts | 324° |
| 2026-04-23 19:27 | 35.80407 | -81.68918 | 28545 ft | 476 kts | 324° |
| 2026-04-23 19:27 | 35.88586 | -81.76105 | 29990 ft | 485 kts | 324° |
| 2026-04-23 19:28 | 35.94053 | -81.80917 | 30946 ft | 484 kts | 324° |
| 2026-04-23 19:28 | 35.99489 | -81.85709 | 32196 ft | 476 kts | 324° |
| 2026-04-23 19:29 | 36.02178 | -81.88084 | 32737 ft | 474 kts | 324° |
| 2026-04-23 19:29 | 36.07517 | -81.92804 | 33834 ft | 469 kts | 324° |
| 2026-04-23 19:30 | 36.12793 | -81.97477 | 34791 ft | 464 kts | 324° |
| 2026-04-23 19:30 | 36.15382 | -81.99773 | 35214 ft | 463 kts | 324° |
| 2026-04-23 19:30 | 36.20590 | -82.04397 | 36053 ft | 459 kts | 324° |
| 2026-04-23 19:31 | 36.23176 | -82.06695 | 36441 ft | 457 kts | 324° |
| 2026-04-23 19:31 | 36.25756 | -82.08990 | 36838 ft | 456 kts | 324° |
| 2026-04-23 19:31 | 36.28325 | -82.11278 | 37236 ft | 454 kts | 324° |
| 2026-04-23 19:31 | 36.30886 | -82.13561 | 37616 ft | 452 kts | 324° |
| 2026-04-23 19:32 | 36.33432 | -82.15832 | 37992 ft | 451 kts | 324° |
| 2026-04-23 19:32 | 36.38527 | -82.20380 | 38098 ft | 456 kts | 324° |
| 2026-04-23 19:33 | 36.43642 | -82.24956 | 38101 ft | 450 kts | 324° |
| 2026-04-23 19:33 | 36.51224 | -82.31752 | 38123 ft | 448 kts | 324° |
| 2026-04-23 19:34 | 36.55421 | -82.35521 | 38119 ft | 448 kts | 324° |
| 2026-04-23 19:35 | 36.63813 | -82.43074 | 38106 ft | 448 kts | 324° |
| 2026-04-23 19:35 | 36.68873 | -82.47638 | 38095 ft | 449 kts | 324° |
| 2026-04-23 19:36 | 36.73085 | -82.51443 | 38093 ft | 450 kts | 324° |
| 2026-04-23 19:36 | 36.78157 | -82.56031 | 38113 ft | 451 kts | 324° |
| 2026-04-23 19:37 | 36.84057 | -82.61380 | 38114 ft | 451 kts | 324° |
| 2026-04-23 19:37 | 36.89125 | -82.65995 | 38126 ft | 451 kts | 324° |
| 2026-04-23 19:38 | 36.93341 | -82.69841 | 38128 ft | 451 kts | 324° |
| 2026-04-23 19:38 | 36.98407 | -82.74469 | 38110 ft | 451 kts | 324° |
| 2026-04-23 19:39 | 37.03469 | -82.79101 | 38108 ft | 451 kts | 324° |
| 2026-04-23 19:39 | 37.08528 | -82.83739 | 38096 ft | 450 kts | 324° |
| 2026-04-23 19:40 | 37.13576 | -82.88373 | 38070 ft | 450 kts | 323° |
| 2026-04-23 19:40 | 37.18580 | -82.92975 | 38075 ft | 449 kts | 323° |
| 2026-04-23 19:41 | 37.23621 | -82.97620 | 38065 ft | 449 kts | 323° |
| 2026-04-23 19:41 | 37.28656 | -83.02265 | 38076 ft | 449 kts | 323° |
| 2026-04-23 19:42 | 37.33689 | -83.06916 | 38077 ft | 449 kts | 323° |
| 2026-04-23 19:42 | 37.38680 | -83.11538 | 38082 ft | 449 kts | 323° |
| 2026-04-23 19:43 | 37.43712 | -83.16205 | 38087 ft | 449 kts | 323° |
| 2026-04-23 19:43 | 37.48737 | -83.20874 | 38079 ft | 449 kts | 323° |
| 2026-04-23 19:44 | 37.53763 | -83.25551 | 38098 ft | 449 kts | 323° |
| 2026-04-23 19:44 | 37.58747 | -83.30198 | 38105 ft | 449 kts | 323° |
| 2026-04-23 19:45 | 37.63769 | -83.34887 | 38099 ft | 449 kts | 323° |
| 2026-04-23 19:45 | 37.68781 | -83.39576 | 38100 ft | 449 kts | 323° |
| 2026-04-23 19:46 | 37.73798 | -83.44276 | 38088 ft | 449 kts | 322° |
| 2026-04-23 19:46 | 37.78772 | -83.48946 | 38079 ft | 449 kts | 322° |
| 2026-04-23 19:47 | 37.83782 | -83.53658 | 38065 ft | 449 kts | 322° |
| 2026-04-23 19:47 | 37.88792 | -83.58377 | 38055 ft | 449 kts | 322° |
| 2026-04-23 19:48 | 37.93805 | -83.63106 | 38057 ft | 449 kts | 322° |
| 2026-04-23 19:48 | 37.98779 | -83.67808 | 38063 ft | 449 kts | 322° |
| 2026-04-23 19:49 | 38.03787 | -83.72550 | 38063 ft | 449 kts | 322° |
| 2026-04-23 19:49 | 38.08790 | -83.77295 | 38066 ft | 449 kts | 322° |
| 2026-04-23 19:50 | 38.13796 | -83.82052 | 38067 ft | 449 kts | 322° |
| 2026-04-23 19:50 | 38.18769 | -83.86786 | 38073 ft | 450 kts | 321° |
| 2026-04-23 19:51 | 38.23771 | -83.91555 | 38064 ft | 450 kts | 321° |
| 2026-04-23 19:51 | 38.28783 | -83.96343 | 38063 ft | 450 kts | 321° |
| 2026-04-23 19:52 | 38.33794 | -84.01138 | 38055 ft | 450 kts | 321° |
| 2026-04-23 19:52 | 38.38800 | -84.05936 | 38046 ft | 451 kts | 321° |
| 2026-04-23 19:53 | 38.43774 | -84.10714 | 38047 ft | 451 kts | 321° |
| 2026-04-23 19:53 | 38.48781 | -84.15531 | 38045 ft | 451 kts | 321° |
| 2026-04-23 19:54 | 38.53784 | -84.20353 | 38041 ft | 451 kts | 321° |
| 2026-04-23 19:54 | 38.58784 | -84.25181 | 38034 ft | 451 kts | 320° |
| 2026-04-23 19:55 | 38.63652 | -84.30138 | 38038 ft | 449 kts | 315° |
| 2026-04-23 19:55 | 38.67846 | -84.36007 | 38038 ft | 447 kts | 306° |
| 2026-04-23 19:56 | 38.71557 | -84.42402 | 38026 ft | 447 kts | 304° |
| 2026-04-23 19:56 | 38.75235 | -84.48822 | 38034 ft | 447 kts | 304° |
| 2026-04-23 19:57 | 38.78930 | -84.55241 | 38027 ft | 448 kts | 305° |
| 2026-04-23 19:57 | 38.82612 | -84.61619 | 38030 ft | 448 kts | 304° |
| 2026-04-23 19:58 | 38.86324 | -84.68049 | 38039 ft | 448 kts | 304° |
| 2026-04-23 19:58 | 38.90025 | -84.74473 | 38039 ft | 448 kts | 304° |
| 2026-04-23 19:59 | 38.93731 | -84.80920 | 38029 ft | 448 kts | 304° |
| 2026-04-23 19:59 | 38.97429 | -84.87366 | 38037 ft | 448 kts | 304° |
| 2026-04-23 20:00 | 39.01099 | -84.93777 | 38028 ft | 448 kts | 304° |
| 2026-04-23 20:00 | 39.04787 | -85.00232 | 38012 ft | 448 kts | 304° |
| 2026-04-23 20:01 | 39.08472 | -85.06693 | 37984 ft | 448 kts | 304° |
| 2026-04-23 20:01 | 39.12152 | -85.13159 | 38013 ft | 448 kts | 304° |
| 2026-04-23 20:02 | 39.15810 | -85.19600 | 38022 ft | 448 kts | 304° |
| 2026-04-23 20:02 | 39.19485 | -85.26084 | 38001 ft | 448 kts | 303° |
| 2026-04-23 20:03 | 39.23160 | -85.32581 | 38006 ft | 448 kts | 303° |
| 2026-04-23 20:03 | 39.26834 | -85.39090 | 38021 ft | 449 kts | 303° |
| 2026-04-23 20:04 | 39.30502 | -85.45601 | 38021 ft | 448 kts | 303° |
| 2026-04-23 20:04 | 39.34144 | -85.52079 | 37990 ft | 449 kts | 303° |
| 2026-04-23 20:05 | 39.37804 | -85.58602 | 37986 ft | 448 kts | 303° |
| 2026-04-23 20:05 | 39.41459 | -85.65130 | 37973 ft | 448 kts | 303° |
| 2026-04-23 20:06 | 39.45109 | -85.71662 | 37973 ft | 448 kts | 303° |
| 2026-04-23 20:06 | 39.48735 | -85.78164 | 37976 ft | 448 kts | 303° |
| 2026-04-23 20:07 | 39.52380 | -85.84714 | 37981 ft | 448 kts | 303° |
| 2026-04-23 20:07 | 39.56014 | -85.91258 | 37981 ft | 448 kts | 303° |
| 2026-04-23 20:08 | 39.59649 | -85.97816 | 37990 ft | 448 kts | 303° |
| 2026-04-23 20:08 | 39.63256 | -86.04339 | 37993 ft | 448 kts | 303° |
| 2026-04-23 20:09 | 39.66881 | -86.10908 | 37990 ft | 448 kts | 302° |
| 2026-04-23 20:09 | 39.70499 | -86.17475 | 37991 ft | 448 kts | 302° |
| 2026-04-23 20:10 | 39.74117 | -86.24058 | 37972 ft | 447 kts | 302° |
| 2026-04-23 20:10 | 39.77733 | -86.30651 | 37974 ft | 447 kts | 302° |
| 2026-04-23 20:11 | 39.81316 | -86.37198 | 37974 ft | 447 kts | 302° |
| 2026-04-23 20:11 | 39.84918 | -86.43793 | 37976 ft | 447 kts | 302° |
| 2026-04-23 20:12 | 39.88521 | -86.50404 | 37972 ft | 447 kts | 302° |
| 2026-04-23 20:12 | 39.92118 | -86.57016 | 37971 ft | 448 kts | 302° |
| 2026-04-23 20:13 | 39.95713 | -86.63639 | 37961 ft | 448 kts | 302° |
| 2026-04-23 20:13 | 39.99615 | -86.69893 | 37958 ft | 453 kts | 315° |
| 2026-04-23 20:14 | 40.04997 | -86.74299 | 37952 ft | 465 kts | 334° |
| 2026-04-23 20:14 | 40.11205 | -86.76870 | 37967 ft | 469 kts | 339° |
| 2026-04-23 20:15 | 40.17479 | -86.79244 | 37954 ft | 470 kts | 339° |
| 2026-04-23 20:15 | 40.23704 | -86.81674 | 37954 ft | 470 kts | 338° |
| 2026-04-23 20:16 | 40.29971 | -86.84189 | 37948 ft | 470 kts | 338° |
| 2026-04-23 20:16 | 40.36217 | -86.86720 | 37950 ft | 470 kts | 338° |
| 2026-04-23 20:17 | 40.42470 | -86.89258 | 37956 ft | 470 kts | 338° |
| 2026-04-23 20:17 | 40.48716 | -86.91796 | 37954 ft | 470 kts | 338° |
| 2026-04-23 20:18 | 40.54914 | -86.94317 | 37953 ft | 469 kts | 338° |
| 2026-04-23 20:18 | 40.61148 | -86.96857 | 37945 ft | 469 kts | 338° |
| 2026-04-23 20:19 | 40.67376 | -86.99401 | 37946 ft | 469 kts | 338° |
| 2026-04-23 20:19 | 40.73560 | -87.01931 | 37942 ft | 468 kts | 338° |
| 2026-04-23 20:20 | 40.79785 | -87.04484 | 37944 ft | 468 kts | 338° |
| 2026-04-23 20:20 | 40.86005 | -87.07039 | 37944 ft | 468 kts | 338° |
| 2026-04-23 20:21 | 40.92232 | -87.09603 | 37944 ft | 468 kts | 338° |
| 2026-04-23 20:21 | 40.98449 | -87.12167 | 37945 ft | 468 kts | 338° |
| 2026-04-23 20:22 | 41.04703 | -87.14618 | 37946 ft | 470 kts | 342° |
| 2026-04-23 20:22 | 41.11166 | -87.15841 | 37943 ft | 475 kts | 351° |
| 2026-04-23 20:23 | 41.17755 | -87.16554 | 37931 ft | 475 kts | 351° |
| 2026-04-23 20:23 | 41.24345 | -87.17268 | 37917 ft | 475 kts | 351° |
| 2026-04-23 20:24 | 41.30886 | -87.18021 | 37907 ft | 474 kts | 351° |
| 2026-04-23 20:24 | 41.37451 | -87.18801 | 37902 ft | 474 kts | 351° |
| 2026-04-23 20:25 | 41.44028 | -87.19588 | 37899 ft | 474 kts | 351° |
| 2026-04-23 20:25 | 41.50614 | -87.20377 | 37388 ft | 479 kts | 351° |
| 2026-04-23 20:25 | 41.53913 | -87.20772 | 36875 ft | 475 kts | 351° |
| 2026-04-23 20:26 | 41.57196 | -87.21163 | 36068 ft | 475 kts | 351° |
| 2026-04-23 20:26 | 41.60513 | -87.21562 | 35047 ft | 481 kts | 351° |
| 2026-04-23 20:26 | 41.63852 | -87.21964 | 34213 ft | 482 kts | 351° |
| 2026-04-23 20:26 | 41.67146 | -87.22359 | 33499 ft | 480 kts | 351° |
| 2026-04-23 20:27 | 41.70449 | -87.22753 | 32890 ft | 475 kts | 351° |
| 2026-04-23 20:27 | 41.73728 | -87.23144 | 32339 ft | 469 kts | 351° |
| 2026-04-23 20:27 | 41.76958 | -87.23531 | 31778 ft | 465 kts | 351° |
| 2026-04-23 20:27 | 41.80178 | -87.23918 | 31197 ft | 462 kts | 351° |
| 2026-04-23 20:28 | 41.83370 | -87.24303 | 30614 ft | 459 kts | 351° |
| 2026-04-23 20:28 | 41.86539 | -87.24687 | 30043 ft | 457 kts | 351° |
| 2026-04-23 20:28 | 41.89688 | -87.25068 | 29426 ft | 453 kts | 351° |
| 2026-04-23 20:28 | 41.92826 | -87.25449 | 28707 ft | 451 kts | 351° |
| 2026-04-23 20:29 | 41.95944 | -87.25827 | 28111 ft | 448 kts | 351° |
| 2026-04-23 20:29 | 41.98993 | -87.26197 | 27561 ft | 444 kts | 351° |
| 2026-04-23 20:29 | 42.02048 | -87.26567 | 27007 ft | 440 kts | 351° |
| 2026-04-23 20:29 | 42.05084 | -87.26936 | 26461 ft | 436 kts | 351° |
| 2026-04-23 20:30 | 42.08093 | -87.27302 | 25927 ft | 433 kts | 351° |
| 2026-04-23 20:30 | 42.14045 | -87.28027 | 24877 ft | 427 kts | 351° |
| 2026-04-23 20:30 | 42.16995 | -87.28387 | 24353 ft | 425 kts | 351° |
| 2026-04-23 20:31 | 42.19936 | -87.28747 | 23821 ft | 423 kts | 351° |
| 2026-04-23 20:31 | 42.22866 | -87.29105 | 23258 ft | 422 kts | 352° |
| 2026-04-23 20:31 | 42.25741 | -87.29457 | 22685 ft | 419 kts | 352° |
| 2026-04-23 20:31 | 42.28632 | -87.29811 | 22143 ft | 416 kts | 352° |
| 2026-04-23 20:32 | 42.31505 | -87.30163 | 21620 ft | 413 kts | 352° |
| 2026-04-23 20:32 | 42.34360 | -87.30513 | 21107 ft | 410 kts | 352° |
| 2026-04-23 20:32 | 42.37190 | -87.30861 | 20626 ft | 407 kts | 352° |
| 2026-04-23 20:32 | 42.39987 | -87.31204 | 20231 ft | 401 kts | 352° |
| 2026-04-23 20:33 | 42.42758 | -87.31544 | 19747 ft | 399 kts | 353° |
| 2026-04-23 20:33 | 42.45510 | -87.31884 | 19267 ft | 396 kts | 353° |
| 2026-04-23 20:33 | 42.48217 | -87.32218 | 18785 ft | 395 kts | 353° |
| 2026-04-23 20:33 | 42.50944 | -87.32554 | 18280 ft | 394 kts | 353° |
| 2026-04-23 20:34 | 42.53668 | -87.32890 | 17723 ft | 392 kts | 353° |
| 2026-04-23 20:34 | 42.56380 | -87.33225 | 17196 ft | 390 kts | 353° |
| 2026-04-23 20:34 | 42.59072 | -87.33557 | 16691 ft | 387 kts | 353° |
| 2026-04-23 20:34 | 42.61751 | -87.33889 | 16196 ft | 385 kts | 353° |
| 2026-04-23 20:35 | 42.64409 | -87.34218 | 15698 ft | 382 kts | 353° |
| 2026-04-23 20:35 | 42.67040 | -87.34557 | 15290 ft | 378 kts | 351° |
| 2026-04-23 20:35 | 42.69608 | -87.35217 | 14834 ft | 373 kts | 343° |
| 2026-04-23 20:35 | 42.72041 | -87.36248 | 14378 ft | 370 kts | 337° |
| 2026-04-23 20:36 | 42.74394 | -87.37637 | 13907 ft | 367 kts | 333° |
| 2026-04-23 20:36 | 42.76694 | -87.39115 | 13406 ft | 366 kts | 332° |
| 2026-04-23 20:36 | 42.78992 | -87.40595 | 12880 ft | 364 kts | 332° |
| 2026-04-23 20:36 | 42.81284 | -87.42053 | 12401 ft | 363 kts | 333° |
| 2026-04-23 20:37 | 42.83567 | -87.43495 | 11911 ft | 361 kts | 333° |
| 2026-04-23 20:37 | 42.85831 | -87.44877 | 11438 ft | 360 kts | 335° |
| 2026-04-23 20:37 | 42.88157 | -87.46140 | 10963 ft | 360 kts | 336° |
| 2026-04-23 20:37 | 42.90493 | -87.47349 | 10538 ft | 357 kts | 337° |
| 2026-04-23 20:38 | 42.92780 | -87.48523 | 10404 ft | 346 kts | 337° |
| 2026-04-23 20:38 | 42.95002 | -87.49671 | 10234 ft | 337 kts | 337° |
| 2026-04-23 20:38 | 42.97159 | -87.50794 | 10087 ft | 327 kts | 336° |
| 2026-04-23 20:38 | 42.99262 | -87.51896 | 9804 ft | 323 kts | 336° |
| 2026-04-23 20:39 | 43.01350 | -87.52996 | 9423 ft | 322 kts | 336° |
| 2026-04-23 20:39 | 43.03420 | -87.54090 | 9048 ft | 321 kts | 336° |
| 2026-04-23 20:39 | 43.05504 | -87.55191 | 8675 ft | 321 kts | 336° |
| 2026-04-23 20:39 | 43.07578 | -87.56287 | 8299 ft | 320 kts | 336° |
| 2026-04-23 20:40 | 43.09652 | -87.57384 | 7929 ft | 319 kts | 336° |
| 2026-04-23 20:40 | 43.11720 | -87.58478 | 7575 ft | 318 kts | 336° |
| 2026-04-23 20:40 | 43.13729 | -87.59650 | 7193 ft | 309 kts | 325° |
| 2026-04-23 20:40 | 43.15246 | -87.61618 | 6837 ft | 297 kts | 298° |
| 2026-04-23 20:41 | 43.16088 | -87.64152 | 6418 ft | 291 kts | 279° |
| 2026-04-23 20:41 | 43.16411 | -87.66856 | 6070 ft | 285 kts | 272° |
| 2026-04-23 20:41 | 43.16633 | -87.69517 | 5740 ft | 284 kts | 272° |
| 2026-04-23 20:41 | 43.16862 | -87.72193 | 5387 ft | 282 kts | 272° |
| 2026-04-23 20:42 | 43.17100 | -87.74849 | 5111 ft | 279 kts | 272° |
| 2026-04-23 20:42 | 43.17341 | -87.77481 | 4778 ft | 277 kts | 272° |
| 2026-04-23 20:42 | 43.17574 | -87.80046 | 4616 ft | 264 kts | 269° |
| 2026-04-23 20:42 | 43.17346 | -87.82407 | 4500 ft | 242 kts | 243° |
| 2026-04-23 20:43 | 43.16423 | -87.84218 | 4392 ft | 227 kts | 221° |
| 2026-04-23 20:43 | 43.15213 | -87.85510 | 4289 ft | 215 kts | 210° |
| 2026-04-23 20:43 | 43.13877 | -87.86244 | 4117 ft | 206 kts | 191° |
| 2026-04-23 20:43 | 43.12450 | -87.86512 | 3887 ft | 203 kts | 188° |
| 2026-04-23 20:44 | 43.11078 | -87.86724 | 3651 ft | 200 kts | 187° |
| 2026-04-23 20:44 | 43.09728 | -87.86938 | 3391 ft | 187 kts | 188° |
| 2026-04-23 20:44 | 43.08495 | -87.87140 | 3172 ft | 175 kts | 188° |
| 2026-04-23 20:44 | 43.07316 | -87.87337 | 3130 ft | 163 kts | 187° |
| 2026-04-23 20:45 | 43.06247 | -87.87519 | 2999 ft | 147 kts | 188° |
| 2026-04-23 20:45 | 43.05232 | -87.87688 | 2589 ft | 146 kts | 187° |
| 2026-04-23 20:45 | 43.04240 | -87.87840 | 2244 ft | 138 kts | 187° |
| 2026-04-23 20:45 | 43.03292 | -87.88016 | 2139 ft | 137 kts | 186° |
| 2026-04-23 20:46 | 43.02394 | -87.88216 | 2172 ft | 125 kts | 187° |
| 2026-04-23 20:46 | 43.01546 | -87.88393 | 2020 ft | 125 kts | 185° |
| 2026-04-23 20:46 | 43.00686 | -87.88512 | 1777 ft | 125 kts | 182° |
| 2026-04-23 20:46 | 42.99819 | -87.88622 | 1538 ft | 128 kts | 182° |
| 2026-04-23 20:47 | 42.98917 | -87.88766 | 1366 ft | 133 kts | 183° |
| 2026-04-23 20:47 | 42.97990 | -87.88947 | 1230 ft | 133 kts | 182° |
| 2026-04-23 20:47 | 42.97077 | -87.89080 | 1018 ft | 132 kts | 181° |
| 2026-04-23 20:47 | 42.96166 | -87.89235 | 843 ft | 132 kts | 181° |
| 2026-04-23 20:48 | 42.95277 | -87.89386 | 694 ft | 122 kts | 181° |
| 2026-04-23 20:48 | 42.94555 | -87.89507 | 689 ft | 87 kts | 188° |
| 2026-04-23 20:48 | 42.94113 | -87.89584 | 693 ft | 40 kts | 187° |
| 2026-04-23 20:48 | 42.93820 | -87.89631 | 693 ft | 41 kts | 187° |
| 2026-04-23 20:49 | 42.93597 | -87.89680 | 698 ft | 22 kts | 205° |
| 2026-04-23 20:49 | 42.93558 | -87.89832 | 694 ft | 18 kts | 290° |
| 2026-04-23 20:49 | 42.93667 | -87.89892 | 699 ft | 19 kts | 0° |
| 2026-04-23 20:49 | 42.93801 | -87.89890 | 696 ft | 20 kts | 0° |
| 2026-04-23 20:50 | 42.93945 | -87.89888 | 693 ft | 19 kts | 0° |
| 2026-04-23 20:50 | 42.94037 | -87.89883 | 690 ft | 9 kts | 14° |
| 2026-04-23 20:50 | 42.94091 | -87.89842 | 690 ft | 9 kts | 39° |
| 2026-04-23 20:50 | 42.94142 | -87.89776 | 691 ft | 13 kts | 44° |
| 2026-04-23 20:51 | 42.94248 | -87.89711 | 695 ft | 22 kts | 7° |
| 2026-04-23 20:51 | 42.94426 | -87.89682 | 695 ft | 27 kts | 7° |
| 2026-04-23 20:51 | 42.94582 | -87.89655 | 693 ft | 22 kts | 7° |
| 2026-04-23 20:51 | 42.94729 | -87.89633 | 689 ft | 18 kts | 353° |
| 2026-04-23 20:52 | 42.94801 | -87.89710 | 686 ft | 14 kts | 339° |
| 2026-04-23 20:52 | 42.94908 | -87.89708 | 682 ft | 17 kts | 353° |
| 2026-04-23 20:52 | 42.95011 | -87.89797 | 677 ft | 19 kts | 328° |
| 2026-04-23 20:52 | 42.95100 | -87.89887 | 678 ft | 15 kts | 312° |
| 2026-04-23 20:53 | 42.95141 | -87.89950 | 680 ft | 7 kts | 312° |
| 2026-04-23 20:53 | 42.95174 | -87.89999 | 681 ft | 7 kts | 312° |
| 2026-04-23 20:53 | 42.95178 | -87.90027 | 678 ft | 2 kts | 248° |
| 2026-04-23 20:53 | 42.95167 | -87.90036 | 676 ft | 2 kts | 208° |
| 2026-04-23 20:54 | 42.95141 | -87.90053 | 678 ft | 4 kts | 203° |
| 2026-04-23 20:54 | 42.95129 | -87.90060 | 681 ft | 1 kts | 202° |
| 2026-04-23 20:54 | 42.95125 | -87.90062 | 682 ft | 0 kts | 202° |